createdAt,value
2022-08-26T00:00:51.873Z,12.83
2022-08-26T00:03:21.219Z,12.77
2022-08-26T00:05:50.925Z,10.40
2022-08-26T00:08:21.429Z,11.80
2022-08-26T00:10:50.098Z,15.60
2022-08-26T00:13:19.477Z,7.97
2022-08-26T00:15:47.994Z,13.13
2022-08-26T00:18:22.049Z,11.57
2022-08-26T00:20:51.421Z,14.83
2022-08-26T00:23:20.986Z,12.73
2022-08-26T00:25:52.720Z,12.10
2022-08-26T00:28:21.502Z,10.57
2022-08-26T00:30:51.614Z,12.93
2022-08-26T00:33:21.191Z,12.37
2022-08-26T00:35:49.968Z,12.23
2022-08-26T00:38:21.788Z,11.40
2022-08-26T00:40:53.309Z,10.67
2022-08-26T00:43:24.016Z,12.63
2022-08-26T00:45:57.585Z,12.10
2022-08-26T00:48:31.811Z,9.83
2022-08-26T00:51:05.223Z,12.43
2022-08-26T00:53:41.367Z,8.63
2022-08-26T00:56:18.212Z,11.93
2022-08-26T00:58:48.015Z,13.53
2022-08-26T01:01:17.061Z,12.63
2022-08-26T01:03:47.335Z,12.80
2022-08-26T01:06:16.394Z,12.03
2022-08-26T01:08:46.556Z,9.73
2022-08-26T01:11:15.174Z,13.50
2022-08-26T01:13:45.080Z,20.37
2022-08-26T01:16:16.844Z,25.63
2022-08-26T01:18:46.856Z,29.20
2022-08-26T01:21:21.345Z,33.20
2022-08-26T01:23:57.736Z,27.80
2022-08-26T01:26:29.760Z,27.77
2022-08-26T01:29:01.374Z,18.37
2022-08-26T01:31:33.526Z,15.03
2022-08-26T01:34:06.762Z,11.57
2022-08-26T01:36:38.514Z,12.97
2022-08-26T01:39:09.396Z,14.53
2022-08-26T01:41:40.593Z,12.07
2022-08-26T01:44:18.537Z,12.73
2022-08-26T01:46:49.961Z,11.17
2022-08-26T01:49:20.457Z,12.53
2022-08-26T01:51:51.477Z,9.27
2022-08-26T01:54:23.116Z,10.57
2022-08-26T01:56:51.952Z,13.13
2022-08-26T01:59:21.721Z,12.70
2022-08-26T02:01:50.365Z,10.67
2022-08-26T02:04:25.359Z,12.30
2022-08-26T02:06:56.513Z,17.27
2022-08-26T02:09:26.791Z,14.67
2022-08-26T02:11:55.684Z,15.13
2022-08-26T02:14:27.128Z,11.50
2022-08-26T02:16:56.897Z,8.70
2022-08-26T02:19:30.981Z,15.53
2022-08-26T02:22:02.581Z,11.67
2022-08-26T02:24:50.898Z,16.17
2022-08-26T02:27:22.259Z,11.40
2022-08-26T02:29:56.041Z,16.70
2022-08-26T02:32:24.514Z,9.57
2022-08-26T02:34:53.180Z,14.00
2022-08-26T02:37:23.031Z,13.63
2022-08-26T02:39:52.712Z,12.63
2022-08-26T02:42:20.929Z,8.90
2022-08-26T02:44:49.167Z,13.90
2022-08-26T02:47:17.846Z,12.37
2022-08-26T02:49:47.694Z,16.83
2022-08-26T02:52:16.949Z,14.50
2022-08-26T02:54:45.528Z,12.47
2022-08-26T02:57:15.208Z,16.93
2022-08-26T02:59:43.582Z,11.67
2022-08-26T03:02:12.553Z,12.80
2022-08-26T03:04:42.019Z,12.07
2022-08-26T03:07:26.647Z,11.57
2022-08-26T03:09:55.081Z,14.83
2022-08-26T03:12:25.652Z,11.03
2022-08-26T03:14:54.137Z,9.97
2022-08-26T03:17:22.466Z,10.17
2022-08-26T03:19:54.673Z,13.57
2022-08-26T03:22:27.110Z,11.83
2022-08-26T03:24:55.493Z,14.43
2022-08-26T03:27:25.155Z,14.20
2022-08-26T03:30:11.732Z,12.23
2022-08-26T03:32:41.472Z,12.63
2022-08-26T03:35:10.200Z,10.47
2022-08-26T03:37:38.704Z,11.50
2022-08-26T03:40:09.072Z,15.17
2022-08-26T03:42:39.394Z,14.23
2022-08-26T03:45:10.517Z,18.00
2022-08-26T03:47:39.326Z,12.13
2022-08-26T03:50:09.770Z,11.33
2022-08-26T03:52:43.541Z,14.77
2022-08-26T03:55:12.603Z,11.27
2022-08-26T03:57:42.384Z,15.70
2022-08-26T04:00:14.692Z,15.70
2022-08-26T04:02:51.203Z,14.23
2022-08-26T04:05:23.259Z,11.40
2022-08-26T04:07:51.925Z,14.97
2022-08-26T04:10:28.922Z,13.57
2022-08-26T04:13:00.592Z,13.90
2022-08-26T04:15:29.140Z,15.97
2022-08-26T04:17:57.759Z,12.20
2022-08-26T04:20:26.406Z,14.53
2022-08-26T04:22:54.919Z,10.77
2022-08-26T04:25:24.301Z,11.63
2022-08-26T04:27:52.944Z,13.70
2022-08-26T04:30:22.606Z,9.00
2022-08-26T04:32:50.934Z,10.17
2022-08-26T04:35:25.431Z,11.60
2022-08-26T04:37:55.490Z,15.50
2022-08-26T04:40:24.301Z,11.10
2022-08-26T04:42:54.168Z,14.60
2022-08-26T04:45:24.506Z,17.90
2022-08-26T04:47:56.760Z,16.47
2022-08-26T04:50:27.018Z,14.57
2022-08-26T04:52:56.155Z,10.53
2022-08-26T04:55:38.605Z,14.03
2022-08-26T04:58:11.869Z,13.20
2022-08-26T05:00:41.443Z,14.17
2022-08-26T05:03:09.669Z,13.77
2022-08-26T05:05:41.056Z,12.10
2022-08-26T05:08:10.049Z,17.33
2022-08-26T05:10:43.714Z,10.67
2022-08-26T05:13:15.145Z,13.93
2022-08-26T05:15:45.505Z,10.10
2022-08-26T05:18:16.359Z,12.37
2022-08-26T05:20:46.937Z,12.90
2022-08-26T05:23:16.187Z,17.03
2022-08-26T05:25:47.226Z,13.17
2022-08-26T05:28:18.028Z,11.00
2022-08-26T05:30:47.861Z,12.93
2022-08-26T05:33:16.873Z,14.63
2022-08-26T05:35:46.929Z,13.63
2022-08-26T05:38:17.823Z,13.33
2022-08-26T05:40:49.084Z,10.30
2022-08-26T05:43:22.661Z,17.67
2022-08-26T05:45:52.365Z,14.33
2022-08-26T05:48:22.738Z,13.80
2022-08-26T05:50:53.879Z,12.60
2022-08-26T05:53:23.885Z,16.40
2022-08-26T05:55:56.075Z,12.57
2022-08-26T05:58:24.855Z,16.97
2022-08-26T06:01:02.924Z,16.87
2022-08-26T06:03:31.881Z,16.00
2022-08-26T06:06:00.222Z,13.63
2022-08-26T06:08:28.591Z,13.67
2022-08-26T06:11:01.588Z,14.03
2022-08-26T06:13:32.076Z,14.23
2022-08-26T06:16:04.882Z,15.83
2022-08-26T06:18:36.448Z,15.63
2022-08-26T06:21:15.185Z,18.00
2022-08-26T06:24:01.624Z,17.83
2022-08-26T06:26:30.548Z,20.07
2022-08-26T06:28:58.913Z,9.87
2022-08-26T06:31:28.823Z,16.67
2022-08-26T06:33:58.288Z,10.60
2022-08-26T06:36:28.418Z,13.37
2022-08-26T06:39:00.312Z,15.10
2022-08-26T06:41:28.601Z,12.70
2022-08-26T06:43:57.873Z,14.27
2022-08-26T06:46:26.220Z,12.23
2022-08-26T06:48:58.147Z,16.43
2022-08-26T06:51:28.172Z,13.07
2022-08-26T06:53:59.538Z,8.60
2022-08-26T06:56:30.018Z,8.73
2022-08-26T06:58:58.181Z,10.87
2022-08-26T07:01:28.214Z,12.37
2022-08-26T07:04:00.494Z,11.53
2022-08-26T07:06:29.693Z,15.20
2022-08-26T07:09:03.970Z,12.50
2022-08-26T07:11:33.791Z,14.17
2022-08-26T07:14:02.050Z,11.87
2022-08-26T07:16:30.816Z,11.33
2022-08-26T07:19:01.114Z,18.23
2022-08-26T07:21:31.691Z,16.83
2022-08-26T07:24:01.459Z,13.67
2022-08-26T07:26:31.899Z,13.43
2022-08-26T07:29:01.787Z,12.48
2022-08-26T07:31:39.564Z,13.88
2022-08-26T07:34:13.858Z,17.37
2022-08-26T07:36:42.461Z,15.00
2022-08-26T07:39:10.666Z,8.45
2022-08-26T07:41:38.878Z,14.63
2022-08-26T07:44:07.352Z,14.40
2022-08-26T07:46:36.907Z,11.82
2022-08-26T07:49:05.732Z,13.27
2022-08-26T07:51:37.168Z,13.68
2022-08-26T07:54:05.852Z,12.07
2022-08-26T07:56:34.295Z,12.20
2022-08-26T07:59:02.618Z,12.85
2022-08-26T08:01:31.511Z,10.25
2022-08-26T08:04:01.508Z,10.40
2022-08-26T08:06:30.575Z,8.75
2022-08-26T08:09:05.495Z,15.50
2022-08-26T08:11:35.133Z,13.35
2022-08-26T08:14:08.426Z,14.85
2022-08-26T08:16:40.191Z,15.13
2022-08-26T08:19:14.652Z,13.77
2022-08-26T08:21:43.213Z,15.27
2022-08-26T08:24:12.979Z,14.07
2022-08-26T08:26:41.846Z,15.60
2022-08-26T08:29:10.134Z,7.68
2022-08-26T08:31:56.908Z,18.48
2022-08-26T08:34:28.572Z,12.90
2022-08-26T08:37:10.672Z,15.07
2022-08-26T08:39:44.936Z,10.98
2022-08-26T08:45:47.225Z,10.52
2022-08-26T08:48:27.309Z,17.75
2022-08-26T08:51:03.450Z,10.32
2022-08-26T08:53:35.349Z,10.80
2022-08-26T08:56:16.162Z,16.50
2022-08-26T08:58:53.673Z,14.70
2022-08-26T09:01:39.457Z,14.20
2022-08-26T09:04:26.200Z,12.00
2022-08-26T09:09:31.774Z,11.32
2022-08-26T09:12:03.619Z,16.50
2022-08-26T09:14:32.800Z,14.60
2022-08-26T09:17:08.820Z,11.10
2022-08-26T09:19:43.784Z,12.38
2022-08-26T09:22:12.070Z,14.70
2022-08-26T09:24:48.301Z,11.35
2022-08-26T09:27:38.328Z,11.40
2022-08-26T09:30:08.483Z,9.43
2022-08-26T09:32:40.098Z,9.45
2022-08-26T09:35:11.530Z,13.50
2022-08-26T09:37:42.804Z,13.20
2022-08-26T09:40:19.101Z,11.25
2022-08-26T09:43:11.373Z,10.45
2022-08-26T09:45:41.691Z,8.20
2022-08-26T09:48:30.250Z,8.77
2022-08-26T09:51:01.397Z,9.05
2022-08-26T09:53:31.631Z,12.45
2022-08-26T09:56:17.569Z,15.25
2022-08-26T09:58:48.912Z,9.88
2022-08-26T10:01:26.853Z,12.68
2022-08-26T10:04:07.289Z,9.77
2022-08-26T10:06:39.411Z,7.93
2022-08-26T10:09:10.849Z,11.52
2022-08-26T10:11:43.635Z,12.10
2022-08-26T10:14:18.444Z,12.85
2022-08-26T10:16:51.836Z,7.80
2022-08-26T10:19:41.811Z,12.02
2022-08-26T10:22:28.953Z,12.13
2022-08-26T10:25:04.311Z,11.57
2022-08-26T10:27:42.663Z,7.85
2022-08-26T10:30:23.767Z,9.25
2022-08-26T10:32:54.480Z,13.05
2022-08-26T10:35:23.670Z,13.07
2022-08-26T10:37:55.854Z,10.00
2022-08-26T10:40:28.661Z,9.98
2022-08-26T10:43:08.528Z,10.48
2022-08-26T10:45:45.271Z,13.70
2022-08-26T10:48:18.283Z,12.25
2022-08-26T10:50:48.470Z,7.80
2022-08-26T10:53:24.960Z,13.05
2022-08-26T10:56:01.077Z,9.13
2022-08-26T10:58:55.469Z,11.20
2022-08-26T11:01:47.169Z,6.80
2022-08-26T11:04:38.554Z,13.52
2022-08-26T11:07:36.773Z,13.43
2022-08-26T11:10:09.054Z,13.65
2022-08-26T11:12:55.965Z,13.88
2022-08-26T11:16:08.364Z,13.48
2022-08-26T11:18:56.048Z,15.10
2022-08-26T11:21:54.089Z,10.43
2022-08-26T11:25:03.415Z,10.90
2022-08-26T11:28:05.241Z,7.85
2022-08-26T11:30:57.730Z,10.77
2022-08-26T11:33:49.297Z,11.77
2022-08-26T11:36:57.406Z,10.65
2022-08-26T11:39:31.865Z,11.43
2022-08-26T11:42:20.206Z,13.85
2022-08-26T11:44:49.862Z,9.15
2022-08-26T11:47:28.802Z,11.48
2022-08-26T11:50:18.133Z,9.38
2022-08-26T11:52:56.401Z,8.05
2022-08-26T11:55:25.514Z,8.98
2022-08-26T11:57:56.436Z,10.38
2022-08-26T12:00:33.316Z,7.40
2022-08-26T12:03:07.831Z,7.75
2022-08-26T12:05:39.486Z,11.32
2022-08-26T12:08:12.364Z,8.10
2022-08-26T12:10:40.587Z,10.95
2022-08-26T12:13:17.739Z,13.45
2022-08-26T12:15:53.622Z,13.65
2022-08-26T12:18:28.745Z,10.68
2022-08-26T12:21:01.367Z,6.38
2022-08-26T12:23:44.120Z,5.90
2022-08-26T12:26:20.672Z,7.65
2022-08-26T12:28:51.991Z,9.30
2022-08-26T12:31:26.880Z,8.43
2022-08-26T12:33:56.903Z,10.15
2022-08-26T12:36:31.625Z,6.90
2022-08-26T12:39:09.515Z,8.52
2022-08-26T12:41:48.053Z,12.02
2022-08-26T12:44:53.277Z,7.65
2022-08-26T12:47:39.045Z,6.35
2022-08-26T12:50:18.637Z,12.02
2022-08-26T12:52:58.016Z,5.40
2022-08-26T12:55:36.581Z,5.63
2022-08-26T12:58:25.100Z,7.32
2022-08-26T13:00:55.235Z,7.88
2022-08-26T13:03:32.345Z,13.15
2022-08-26T13:06:25.889Z,7.13
2022-08-26T13:08:56.254Z,14.15
2022-08-26T13:11:28.624Z,7.90
2022-08-26T13:14:00.049Z,8.68
2022-08-26T13:16:29.129Z,6.63
2022-08-26T13:18:59.559Z,8.65
2022-08-26T13:21:32.030Z,6.25
2022-08-26T13:24:09.261Z,6.70
2022-08-26T13:26:39.232Z,7.13
2022-08-26T13:29:10.298Z,6.40
2022-08-26T13:31:40.982Z,5.78
2022-08-26T13:34:10.509Z,8.20
2022-08-26T13:36:39.215Z,10.10
2022-08-26T13:39:08.086Z,6.25
2022-08-26T13:41:36.809Z,6.78
2022-08-26T13:44:07.049Z,11.95
2022-08-26T13:46:35.570Z,5.50
2022-08-26T13:49:04.532Z,6.97
2022-08-26T13:51:36.932Z,7.20
2022-08-26T13:54:06.250Z,12.80
2022-08-26T13:56:35.772Z,8.25
2022-08-26T13:59:04.890Z,7.13
2022-08-26T14:01:36.173Z,8.05
2022-08-26T14:04:05.160Z,11.55
2022-08-26T14:06:33.651Z,11.95
2022-08-26T14:09:02.285Z,7.57
2022-08-26T14:11:34.776Z,8.18
2022-08-26T14:14:19.227Z,6.80
2022-08-26T14:16:59.154Z,11.25
2022-08-26T14:19:29.735Z,11.60
2022-08-26T14:21:58.906Z,6.90
2022-08-26T14:24:27.448Z,9.43
2022-08-26T14:26:55.828Z,8.52
2022-08-26T14:29:24.259Z,6.88
2022-08-26T14:31:54.685Z,9.25
2022-08-26T14:34:23.060Z,6.05
2022-08-26T14:36:54.331Z,15.80
2022-08-26T14:39:22.920Z,13.15
2022-08-26T14:41:56.128Z,7.30
2022-08-26T14:44:28.677Z,8.00
2022-08-26T14:47:01.084Z,8.25
2022-08-26T14:49:31.327Z,13.40
2022-08-26T14:51:59.813Z,9.05
2022-08-26T14:54:29.509Z,9.65
2022-08-26T14:57:01.330Z,10.75
2022-08-26T14:59:32.799Z,11.90
2022-08-26T15:02:02.850Z,14.45
2022-08-26T15:04:31.349Z,9.40
2022-08-26T15:07:01.118Z,12.63
2022-08-26T15:09:31.357Z,11.40
2022-08-26T15:11:59.906Z,8.07
2022-08-26T15:14:32.855Z,11.55
2022-08-26T15:17:02.993Z,8.00
2022-08-26T15:19:31.379Z,21.95
2022-08-26T15:21:59.846Z,10.70
2022-08-26T15:24:28.951Z,12.48
2022-08-26T15:26:57.409Z,10.20
2022-08-26T15:29:25.849Z,8.38
2022-08-26T15:31:57.345Z,11.20
2022-08-26T15:34:27.701Z,14.48
2022-08-26T15:36:56.162Z,7.70
2022-08-26T15:39:24.685Z,12.63
2022-08-26T15:41:52.959Z,8.88
2022-08-26T15:44:21.247Z,14.10
2022-08-26T15:46:51.812Z,10.90
2022-08-26T15:49:23.425Z,12.70
2022-08-26T15:51:53.114Z,10.43
2022-08-26T15:54:24.027Z,7.70
2022-08-26T15:56:53.818Z,9.93
2022-08-26T15:59:26.391Z,12.10
2022-08-26T16:01:57.083Z,10.18
2022-08-26T16:04:26.821Z,7.22
2022-08-26T16:07:01.323Z,10.52
2022-08-26T16:13:43.605Z,13.13
2022-08-26T16:16:13.011Z,5.95
2022-08-26T16:18:42.599Z,10.60
2022-08-26T16:21:16.016Z,10.50
2022-08-26T16:23:46.403Z,13.25
2022-08-26T16:26:16.900Z,7.65
2022-08-26T16:28:45.412Z,13.00
2022-08-26T16:31:14.508Z,11.52
2022-08-26T18:26:23.510Z,15.70
2022-08-26T18:28:51.790Z,14.30
2022-08-26T18:31:21.895Z,12.85
2022-08-26T18:33:51.501Z,13.75
2022-08-26T18:36:22.259Z,13.30
2022-08-26T18:38:51.664Z,12.30
2022-08-26T18:41:22.773Z,11.68
2022-08-26T18:43:53.086Z,13.85
2022-08-26T18:46:22.910Z,13.73
2022-08-26T18:48:51.451Z,17.73
2022-08-26T18:51:22.640Z,14.90
2022-08-26T18:53:55.661Z,14.80
2022-08-26T18:56:32.445Z,13.55
2022-08-26T18:59:01.554Z,18.42
2022-08-26T19:01:31.130Z,14.13
2022-08-26T19:04:01.314Z,18.38
2022-08-26T19:06:31.670Z,15.18
2022-08-26T19:11:48.803Z,19.55
2022-08-26T19:14:19.302Z,18.60
2022-08-26T19:16:49.615Z,17.90
2022-08-26T19:19:18.133Z,17.65
2022-08-26T19:21:47.461Z,17.92
2022-08-26T19:24:18.705Z,21.20
2022-08-26T19:26:50.374Z,21.02
2022-08-26T19:29:36.783Z,18.92
2022-08-26T19:32:06.292Z,16.27
2022-08-26T19:34:34.592Z,17.27
2022-08-26T19:37:02.874Z,36.55
2022-08-26T19:39:31.197Z,18.48
2022-08-26T19:42:00.813Z,21.55
2022-08-26T19:44:46.658Z,18.17
2022-08-26T19:47:15.799Z,17.90
2022-08-26T19:49:44.372Z,16.98
2022-08-26T19:52:12.936Z,21.65
2022-08-26T19:54:41.503Z,16.58
2022-08-26T19:57:12.624Z,21.67
2022-08-26T19:59:41.635Z,18.10
2022-08-26T20:02:11.019Z,15.65
2022-08-26T20:04:40.490Z,18.75
2022-08-26T20:07:12.021Z,18.40
2022-08-26T20:09:41.876Z,19.02
2022-08-26T20:12:11.886Z,21.88
2022-08-26T20:14:43.032Z,20.63
2022-08-26T20:17:12.001Z,24.77
2022-08-26T20:20:14.668Z,20.45
2022-08-26T20:22:56.649Z,17.25
2022-08-26T20:25:25.714Z,18.42
2022-08-26T20:27:55.356Z,23.23
2022-08-26T20:30:23.876Z,20.92
2022-08-26T20:32:52.386Z,20.08
2022-08-26T20:35:20.652Z,23.83
2022-08-26T20:37:48.931Z,27.35
2022-08-26T20:40:17.489Z,20.98
2022-08-26T20:42:45.797Z,21.52
2022-08-26T20:45:27.486Z,27.95
2022-08-26T20:47:55.749Z,24.92
2022-08-26T20:50:24.244Z,21.27
2022-08-26T20:52:53.557Z,19.75
2022-08-26T20:55:22.308Z,20.40
2022-08-26T20:57:51.067Z,24.67
2022-08-26T21:00:22.997Z,25.10
2022-08-26T21:02:54.958Z,19.50
2022-08-26T21:05:23.462Z,21.07
2022-08-26T21:07:55.076Z,18.30
2022-08-26T21:10:23.297Z,16.23
2022-08-26T21:12:51.876Z,17.83
2022-08-26T21:15:22.282Z,17.80
2022-08-26T21:17:52.617Z,18.67
2022-08-26T21:20:21.351Z,18.27
2022-08-26T21:23:02.504Z,16.67
2022-08-26T21:25:30.777Z,19.73
2022-08-26T21:27:59.142Z,15.33
2022-08-26T21:30:29.025Z,21.60
2022-08-26T21:32:57.300Z,19.70
2022-08-26T21:35:25.555Z,15.57
2022-08-26T21:37:53.840Z,18.43
2022-08-26T21:40:22.196Z,16.23
2022-08-26T21:42:50.468Z,18.30
2022-08-26T21:45:18.885Z,16.40
2022-08-26T21:47:48.571Z,20.80
2022-08-26T21:50:17.246Z,21.53
2022-08-26T21:52:45.491Z,20.23
2022-08-26T21:55:13.911Z,17.97
2022-08-26T21:57:42.238Z,15.47
2022-08-26T22:00:13.221Z,17.83
2022-08-26T22:02:41.512Z,16.83
2022-08-26T22:05:11.736Z,14.40
2022-08-26T22:07:39.999Z,16.50
2022-08-26T22:10:09.431Z,15.73
2022-08-26T22:12:38.748Z,18.03
2022-08-26T22:15:08.337Z,18.43
2022-08-26T22:17:36.682Z,15.63
2022-08-26T22:20:06.128Z,15.77
2022-08-26T22:22:41.007Z,15.03
2022-08-26T22:25:11.252Z,14.10
2022-08-26T22:27:40.449Z,16.10
2022-08-26T22:30:11.874Z,15.77
2022-08-26T22:32:40.463Z,13.07
2022-08-26T22:35:28.054Z,16.57
2022-08-26T22:37:59.881Z,12.80
2022-08-26T22:40:28.459Z,15.93
2022-08-26T22:43:00.059Z,16.77
2022-08-26T22:45:29.341Z,21.67
2022-08-26T22:47:58.591Z,21.53
2022-08-26T22:50:27.416Z,16.67
2022-08-26T22:52:55.674Z,17.13
2022-08-26T22:55:25.286Z,18.57
2022-08-26T22:57:53.620Z,15.97
2022-08-26T23:00:21.985Z,20.57
2022-08-26T23:03:01.046Z,20.57
2022-08-26T23:05:29.868Z,18.93
2022-08-26T23:07:58.139Z,18.23
2022-08-26T23:10:27.746Z,16.90
2022-08-26T23:12:55.992Z,14.63
2022-08-26T23:15:24.408Z,19.63
2022-08-26T23:18:09.257Z,17.23
2022-08-26T23:20:38.529Z,14.63
2022-08-26T23:23:06.742Z,18.00
2022-08-26T23:25:36.335Z,16.13
2022-08-26T23:28:05.564Z,16.73
2022-08-26T23:30:34.517Z,14.53
2022-08-26T23:33:02.906Z,16.23
2022-08-26T23:35:30.233Z,14.73
2022-08-26T23:37:59.014Z,17.67
2022-08-26T23:40:29.315Z,14.23
2022-08-26T23:43:00.026Z,20.53
2022-08-26T23:45:29.007Z,15.00
2022-08-26T23:47:57.523Z,17.43
2022-08-26T23:50:49.034Z,15.83
2022-08-26T23:53:21.384Z,14.43
2022-08-26T23:55:52.590Z,18.03
2022-08-26T23:58:22.988Z,20.63
